sensor_id;sensor_type;location;lat;lon;timestamp;P1;durP1;ratioP1;P2;durP2;ratioP2
21183;SDS011;18176;49.502;11.754;2023-03-01T00:02:03;29.83;;;14.60;;
21183;SDS011;18176;49.502;11.754;2023-03-01T00:06:04;31.60;;;15.87;;
21183;SDS011;18176;49.502;11.754;2023-03-01T00:10:06;27.03;;;14.83;;
21183;SDS011;18176;49.502;11.754;2023-03-01T00:14:08;28.20;;;14.37;;
21183;SDS011;18176;49.502;11.754;2023-03-01T00:18:11;26.30;;;14.17;;
21183;SDS011;18176;49.502;11.754;2023-03-01T00:22:12;28.37;;;14.17;;
21183;SDS011;18176;49.502;11.754;2023-03-01T00:26:12;32.67;;;15.20;;
21183;SDS011;18176;49.502;11.754;2023-03-01T00:30:13;28.30;;;14.80;;
21183;SDS011;18176;49.502;11.754;2023-03-01T00:34:17;29.17;;;14.57;;
21183;SDS011;18176;49.502;11.754;2023-03-01T00:38:18;34.90;;;17.13;;
21183;SDS011;18176;49.502;11.754;2023-03-01T00:42:18;35.57;;;18.30;;
21183;SDS011;18176;49.502;11.754;2023-03-01T00:46:20;34.57;;;17.40;;
21183;SDS011;18176;49.502;11.754;2023-03-01T00:50:25;31.40;;;16.17;;
21183;SDS011;18176;49.502;11.754;2023-03-01T00:54:26;29.87;;;15.47;;
21183;SDS011;18176;49.502;11.754;2023-03-01T00:58:27;32.07;;;15.53;;
21183;SDS011;18176;49.502;11.754;2023-03-01T01:02:28;28.57;;;15.00;;
21183;SDS011;18176;49.502;11.754;2023-03-01T01:06:33;33.50;;;15.63;;
21183;SDS011;18176;49.502;11.754;2023-03-01T01:10:38;32.50;;;15.53;;
21183;SDS011;18176;49.502;11.754;2023-03-01T01:14:39;32.17;;;15.73;;
21183;SDS011;18176;49.502;11.754;2023-03-01T01:18:39;32.13;;;15.77;;
21183;SDS011;18176;49.502;11.754;2023-03-01T01:22:43;31.00;;;15.77;;
21183;SDS011;18176;49.502;11.754;2023-03-01T01:26:43;35.00;;;15.73;;
21183;SDS011;18176;49.502;11.754;2023-03-01T01:30:44;30.97;;;15.00;;
21183;SDS011;18176;49.502;11.754;2023-03-01T01:34:45;30.90;;;15.23;;
21183;SDS011;18176;49.502;11.754;2023-03-01T01:38:48;27.70;;;14.20;;
21183;SDS011;18176;49.502;11.754;2023-03-01T01:42:49;28.37;;;15.00;;
21183;SDS011;18176;49.502;11.754;2023-03-01T01:46:50;30.93;;;15.20;;
21183;SDS011;18176;49.502;11.754;2023-03-01T01:50:56;32.53;;;15.83;;
21183;SDS011;18176;49.502;11.754;2023-03-01T01:55:03;32.00;;;15.63;;
21183;SDS011;18176;49.502;11.754;2023-03-01T01:59:11;33.37;;;16.00;;
21183;SDS011;18176;49.502;11.754;2023-03-01T02:03:14;33.97;;;15.60;;
21183;SDS011;18176;49.502;11.754;2023-03-01T02:07:22;32.43;;;16.43;;
21183;SDS011;18176;49.502;11.754;2023-03-01T02:11:27;35.20;;;16.50;;
21183;SDS011;18176;49.502;11.754;2023-03-01T02:15:34;30.13;;;16.20;;
21183;SDS011;18176;49.502;11.754;2023-03-01T02:19:43;31.13;;;15.63;;
21183;SDS011;18176;49.502;11.754;2023-03-01T02:23:59;32.17;;;15.60;;
21183;SDS011;18176;49.502;11.754;2023-03-01T02:28:23;31.53;;;15.17;;
21183;SDS011;18176;49.502;11.754;2023-03-01T02:32:29;32.17;;;15.67;;
21183;SDS011;18176;49.502;11.754;2023-03-01T02:36:31;33.97;;;16.50;;
21183;SDS011;18176;49.502;11.754;2023-03-01T02:40:36;35.67;;;16.57;;
21183;SDS011;18176;49.502;11.754;2023-03-01T02:44:44;35.80;;;16.77;;
21183;SDS011;18176;49.502;11.754;2023-03-01T02:48:45;30.83;;;15.53;;
21183;SDS011;18176;49.502;11.754;2023-03-01T02:52:52;37.33;;;16.73;;
21183;SDS011;18176;49.502;11.754;2023-03-01T02:57:00;32.60;;;16.60;;
21183;SDS011;18176;49.502;11.754;2023-03-01T03:01:04;35.67;;;17.23;;
21183;SDS011;18176;49.502;11.754;2023-03-01T03:05:07;30.57;;;16.27;;
21183;SDS011;18176;49.502;11.754;2023-03-01T03:09:12;37.13;;;16.80;;
21183;SDS011;18176;49.502;11.754;2023-03-01T03:13:15;31.80;;;16.13;;
21183;SDS011;18176;49.502;11.754;2023-03-01T03:17:19;34.97;;;16.97;;
21183;SDS011;18176;49.502;11.754;2023-03-01T03:21:19;34.50;;;16.33;;
21183;SDS011;18176;49.502;11.754;2023-03-01T03:25:20;36.63;;;16.10;;
21183;SDS011;18176;49.502;11.754;2023-03-01T03:29:22;31.40;;;15.53;;
21183;SDS011;18176;49.502;11.754;2023-03-01T03:33:26;34.87;;;16.00;;
21183;SDS011;18176;49.502;11.754;2023-03-01T03:37:26;31.37;;;16.10;;
21183;SDS011;18176;49.502;11.754;2023-03-01T03:41:45;31.27;;;15.90;;
21183;SDS011;18176;49.502;11.754;2023-03-01T03:45:46;35.13;;;16.37;;
21183;SDS011;18176;49.502;11.754;2023-03-01T03:49:50;33.63;;;15.93;;
21183;SDS011;18176;49.502;11.754;2023-03-01T03:53:51;32.40;;;16.87;;
21183;SDS011;18176;49.502;11.754;2023-03-01T03:57:51;32.73;;;16.70;;
21183;SDS011;18176;49.502;11.754;2023-03-01T04:01:52;34.27;;;16.20;;
21183;SDS011;18176;49.502;11.754;2023-03-01T04:05:59;30.40;;;15.87;;
21183;SDS011;18176;49.502;11.754;2023-03-01T04:10:01;29.23;;;15.73;;
21183;SDS011;18176;49.502;11.754;2023-03-01T04:14:03;34.20;;;15.80;;
21183;SDS011;18176;49.502;11.754;2023-03-01T04:18:04;31.80;;;16.23;;
21183;SDS011;18176;49.502;11.754;2023-03-01T04:22:08;30.93;;;15.90;;
21183;SDS011;18176;49.502;11.754;2023-03-01T04:26:13;32.03;;;16.20;;
21183;SDS011;18176;49.502;11.754;2023-03-01T04:30:14;32.03;;;15.37;;
21183;SDS011;18176;49.502;11.754;2023-03-01T04:34:15;34.50;;;16.63;;
21183;SDS011;18176;49.502;11.754;2023-03-01T04:38:19;30.77;;;15.80;;
21183;SDS011;18176;49.502;11.754;2023-03-01T04:42:20;31.57;;;15.93;;
21183;SDS011;18176;49.502;11.754;2023-03-01T04:46:23;30.73;;;16.27;;
21183;SDS011;18176;49.502;11.754;2023-03-01T04:50:24;32.43;;;15.67;;
21183;SDS011;18176;49.502;11.754;2023-03-01T04:54:27;29.77;;;14.93;;
21183;SDS011;18176;49.502;11.754;2023-03-01T04:58:28;31.30;;;16.07;;
21183;SDS011;18176;49.502;11.754;2023-03-01T05:02:29;32.53;;;15.80;;
21183;SDS011;18176;49.502;11.754;2023-03-01T05:06:29;38.07;;;18.30;;
21183;SDS011;18176;49.502;11.754;2023-03-01T05:10:34;34.90;;;17.27;;
21183;SDS011;18176;49.502;11.754;2023-03-01T05:14:35;30.30;;;16.37;;
21183;SDS011;18176;49.502;11.754;2023-03-01T05:18:37;34.80;;;16.90;;
21183;SDS011;18176;49.502;11.754;2023-03-01T05:22:39;32.97;;;16.17;;
21183;SDS011;18176;49.502;11.754;2023-03-01T05:26:43;33.27;;;16.50;;
21183;SDS011;18176;49.502;11.754;2023-03-01T05:30:44;38.80;;;18.10;;
21183;SDS011;18176;49.502;11.754;2023-03-01T05:34:48;48.17;;;21.93;;
21183;SDS011;18176;49.502;11.754;2023-03-01T05:38:48;33.57;;;17.07;;
21183;SDS011;18176;49.502;11.754;2023-03-01T05:42:52;36.90;;;18.93;;
21183;SDS011;18176;49.502;11.754;2023-03-01T05:46:55;59.57;;;27.97;;
21183;SDS011;18176;49.502;11.754;2023-03-01T05:50:57;57.10;;;28.10;;
21183;SDS011;18176;49.502;11.754;2023-03-01T05:54:59;38.33;;;18.47;;
21183;SDS011;18176;49.502;11.754;2023-03-01T05:59:03;34.87;;;17.30;;
21183;SDS011;18176;49.502;11.754;2023-03-01T06:03:04;39.80;;;17.97;;
21183;SDS011;18176;49.502;11.754;2023-03-01T06:07:05;38.70;;;17.93;;
21183;SDS011;18176;49.502;11.754;2023-03-01T06:11:06;37.70;;;18.10;;
21183;SDS011;18176;49.502;11.754;2023-03-01T06:15:10;35.20;;;16.53;;
21183;SDS011;18176;49.502;11.754;2023-03-01T06:19:12;36.20;;;17.37;;
21183;SDS011;18176;49.502;11.754;2023-03-01T06:23:12;37.20;;;17.60;;
21183;SDS011;18176;49.502;11.754;2023-03-01T06:27:12;35.93;;;17.70;;
21183;SDS011;18176;49.502;11.754;2023-03-01T06:31:16;35.53;;;17.80;;
21183;SDS011;18176;49.502;11.754;2023-03-01T06:35:17;47.20;;;22.90;;
21183;SDS011;18176;49.502;11.754;2023-03-01T06:39:19;34.80;;;17.37;;
21183;SDS011;18176;49.502;11.754;2023-03-01T06:43:19;32.03;;;17.67;;
21183;SDS011;18176;49.502;11.754;2023-03-01T06:47:23;34.77;;;17.00;;
21183;SDS011;18176;49.502;11.754;2023-03-01T06:51:23;34.47;;;18.10;;
21183;SDS011;18176;49.502;11.754;2023-03-01T06:55:25;30.43;;;16.40;;
21183;SDS011;18176;49.502;11.754;2023-03-01T06:59:26;33.93;;;17.80;;
21183;SDS011;18176;49.502;11.754;2023-03-01T07:03:30;35.23;;;17.00;;
21183;SDS011;18176;49.502;11.754;2023-03-01T07:07:30;33.33;;;16.13;;
21183;SDS011;18176;49.502;11.754;2023-03-01T07:11:31;33.37;;;16.10;;
21183;SDS011;18176;49.502;11.754;2023-03-01T07:15:32;32.20;;;15.83;;
21183;SDS011;18176;49.502;11.754;2023-03-01T07:19:35;29.93;;;16.03;;
21183;SDS011;18176;49.502;11.754;2023-03-01T07:23:36;31.43;;;15.53;;
21183;SDS011;18176;49.502;11.754;2023-03-01T07:27:36;29.60;;;15.30;;
21183;SDS011;18176;49.502;11.754;2023-03-01T07:31:37;30.23;;;15.87;;
21183;SDS011;18176;49.502;11.754;2023-03-01T07:35:40;26.80;;;15.23;;
21183;SDS011;18176;49.502;11.754;2023-03-01T07:39:41;25.03;;;14.93;;
21183;SDS011;18176;49.502;11.754;2023-03-01T07:43:41;28.83;;;15.37;;
21183;SDS011;18176;49.502;11.754;2023-03-01T07:47:42;28.33;;;14.97;;
21183;SDS011;18176;49.502;11.754;2023-03-01T07:51:45;29.30;;;15.90;;
21183;SDS011;18176;49.502;11.754;2023-03-01T07:55:46;26.97;;;14.73;;
21183;SDS011;18176;49.502;11.754;2023-03-01T07:59:47;28.33;;;15.53;;
21183;SDS011;18176;49.502;11.754;2023-03-01T08:03:48;26.90;;;15.60;;
21183;SDS011;18176;49.502;11.754;2023-03-01T08:07:51;25.03;;;15.33;;
21183;SDS011;18176;49.502;11.754;2023-03-01T08:11:52;29.37;;;16.03;;
21183;SDS011;18176;49.502;11.754;2023-03-01T08:15:53;31.50;;;16.17;;
21183;SDS011;18176;49.502;11.754;2023-03-01T08:19:59;30.07;;;17.13;;
21183;SDS011;18176;49.502;11.754;2023-03-01T08:24:04;28.47;;;16.30;;
21183;SDS011;18176;49.502;11.754;2023-03-01T08:28:06;34.27;;;18.33;;
21183;SDS011;18176;49.502;11.754;2023-03-01T08:32:07;34.07;;;18.73;;
21183;SDS011;18176;49.502;11.754;2023-03-01T08:36:08;34.07;;;18.77;;
21183;SDS011;18176;49.502;11.754;2023-03-01T08:40:13;31.53;;;17.50;;
21183;SDS011;18176;49.502;11.754;2023-03-01T08:44:14;35.10;;;18.00;;
21183;SDS011;18176;49.502;11.754;2023-03-01T08:48:17;35.97;;;18.70;;
21183;SDS011;18176;49.502;11.754;2023-03-01T08:52:17;33.07;;;18.03;;
21183;SDS011;18176;49.502;11.754;2023-03-01T08:56:21;30.20;;;17.23;;
21183;SDS011;18176;49.502;11.754;2023-03-01T09:00:22;32.97;;;17.20;;
21183;SDS011;18176;49.502;11.754;2023-03-01T09:04:22;28.67;;;17.43;;
21183;SDS011;18176;49.502;11.754;2023-03-01T09:08:23;29.93;;;16.83;;
21183;SDS011;18176;49.502;11.754;2023-03-01T09:12:27;31.17;;;17.50;;
21183;SDS011;18176;49.502;11.754;2023-03-01T09:16:27;29.63;;;16.63;;
21183;SDS011;18176;49.502;11.754;2023-03-01T09:20:32;29.50;;;16.90;;
21183;SDS011;18176;49.502;11.754;2023-03-01T09:24:33;29.10;;;16.77;;
21183;SDS011;18176;49.502;11.754;2023-03-01T09:28:36;34.43;;;18.40;;
21183;SDS011;18176;49.502;11.754;2023-03-01T09:32:38;29.63;;;16.50;;
21183;SDS011;18176;49.502;11.754;2023-03-01T09:36:39;28.50;;;17.37;;
21183;SDS011;18176;49.502;11.754;2023-03-01T09:40:41;27.37;;;16.23;;
21183;SDS011;18176;49.502;11.754;2023-03-01T09:44:48;29.57;;;16.60;;
21183;SDS011;18176;49.502;11.754;2023-03-01T09:48:56;24.33;;;16.57;;
21183;SDS011;18176;49.502;11.754;2023-03-01T09:53:02;26.23;;;16.40;;
21183;SDS011;18176;49.502;11.754;2023-03-01T09:57:12;29.80;;;16.23;;
21183;SDS011;18176;49.502;11.754;2023-03-01T10:01:33;23.90;;;15.93;;
21183;SDS011;18176;49.502;11.754;2023-03-01T10:05:45;29.10;;;17.27;;
21183;SDS011;18176;49.502;11.754;2023-03-01T10:09:56;24.60;;;15.47;;
21183;SDS011;18176;49.502;11.754;2023-03-01T10:14:01;26.33;;;16.50;;
21183;SDS011;18176;49.502;11.754;2023-03-01T10:18:18;26.13;;;15.70;;
21183;SDS011;18176;49.502;11.754;2023-03-01T10:22:25;23.27;;;15.20;;
21183;SDS011;18176;49.502;11.754;2023-03-01T10:26:33;24.20;;;15.67;;
21183;SDS011;18176;49.502;11.754;2023-03-01T10:30:47;23.13;;;14.67;;
21183;SDS011;18176;49.502;11.754;2023-03-01T10:34:51;21.80;;;14.53;;
21183;SDS011;18176;49.502;11.754;2023-03-01T10:38:55;22.77;;;14.43;;
21183;SDS011;18176;49.502;11.754;2023-03-01T10:42:57;22.40;;;13.97;;
21183;SDS011;18176;49.502;11.754;2023-03-01T10:47:01;24.40;;;15.43;;
21183;SDS011;18176;49.502;11.754;2023-03-01T10:51:12;22.00;;;14.20;;
21183;SDS011;18176;49.502;11.754;2023-03-01T10:55:23;22.30;;;15.13;;
21183;SDS011;18176;49.502;11.754;2023-03-01T10:59:33;22.27;;;15.00;;
21183;SDS011;18176;49.502;11.754;2023-03-01T11:03:37;22.92;;;14.80;;
21183;SDS011;18176;49.502;11.754;2023-03-01T11:07:49;25.60;;;14.65;;
21183;SDS011;18176;49.502;11.754;2023-03-01T11:11:53;22.35;;;14.65;;
21183;SDS011;18176;49.502;11.754;2023-03-01T11:15:59;20.73;;;13.90;;
21183;SDS011;18176;49.502;11.754;2023-03-01T11:20:06;20.58;;;14.10;;
21183;SDS011;18176;49.502;11.754;2023-03-01T11:24:29;20.63;;;13.68;;
21183;SDS011;18176;49.502;11.754;2023-03-01T11:28:39;19.10;;;13.48;;
21183;SDS011;18176;49.502;11.754;2023-03-01T11:32:45;20.92;;;13.57;;
21183;SDS011;18176;49.502;11.754;2023-03-01T11:36:58;19.33;;;13.38;;
21183;SDS011;18176;49.502;11.754;2023-03-01T11:41:11;18.48;;;13.32;;
21183;SDS011;18176;49.502;11.754;2023-03-01T11:45:19;18.60;;;13.15;;
21183;SDS011;18176;49.502;11.754;2023-03-01T11:49:33;16.70;;;12.57;;
21183;SDS011;18176;49.502;11.754;2023-03-01T11:54:00;18.80;;;13.00;;
21183;SDS011;18176;49.502;11.754;2023-03-01T11:58:18;23.42;;;13.68;;
21183;SDS011;18176;49.502;11.754;2023-03-01T12:02:50;19.98;;;13.45;;
21183;SDS011;18176;49.502;11.754;2023-03-01T12:07:23;19.05;;;12.20;;
21183;SDS011;18176;49.502;11.754;2023-03-01T12:11:41;18.65;;;13.38;;
21183;SDS011;18176;49.502;11.754;2023-03-01T12:20:42;19.38;;;13.77;;
21183;SDS011;18176;49.502;11.754;2023-03-01T12:25:01;21.95;;;13.55;;
21183;SDS011;18176;49.502;11.754;2023-03-01T12:29:25;21.27;;;13.77;;
21183;SDS011;18176;49.502;11.754;2023-03-01T12:33:36;21.38;;;14.52;;
21183;SDS011;18176;49.502;11.754;2023-03-01T12:37:54;20.50;;;13.57;;
21183;SDS011;18176;49.502;11.754;2023-03-01T12:42:04;20.63;;;13.82;;
21183;SDS011;18176;49.502;11.754;2023-03-01T12:46:20;20.33;;;13.93;;
21183;SDS011;18176;49.502;11.754;2023-03-01T12:50:38;20.77;;;14.32;;
21183;SDS011;18176;49.502;11.754;2023-03-01T12:54:43;22.05;;;14.70;;
21183;SDS011;18176;49.502;11.754;2023-03-01T12:58:54;25.02;;;14.57;;
21183;SDS011;18176;49.502;11.754;2023-03-01T13:03:09;26.15;;;17.58;;
21183;SDS011;18176;49.502;11.754;2023-03-01T13:07:28;23.15;;;15.38;;
21183;SDS011;18176;49.502;11.754;2023-03-01T13:11:35;21.88;;;14.70;;
21183;SDS011;18176;49.502;11.754;2023-03-01T13:15:40;23.27;;;15.15;;
21183;SDS011;18176;49.502;11.754;2023-03-01T13:19:44;21.52;;;15.38;;
21183;SDS011;18176;49.502;11.754;2023-03-01T13:24:00;19.60;;;14.43;;
21183;SDS011;18176;49.502;11.754;2023-03-01T13:32:46;21.63;;;14.63;;
21183;SDS011;18176;49.502;11.754;2023-03-01T13:36:47;22.17;;;13.88;;
21183;SDS011;18176;49.502;11.754;2023-03-01T13:41:00;20.05;;;14.02;;
21183;SDS011;18176;49.502;11.754;2023-03-01T13:45:02;19.83;;;14.30;;
21183;SDS011;18176;49.502;11.754;2023-03-01T13:49:16;19.83;;;13.73;;
21183;SDS011;18176;49.502;11.754;2023-03-01T13:53:24;21.00;;;14.40;;
21183;SDS011;18176;49.502;11.754;2023-03-01T13:57:34;21.77;;;13.90;;
21183;SDS011;18176;49.502;11.754;2023-03-01T14:01:38;18.73;;;13.60;;
21183;SDS011;18176;49.502;11.754;2023-03-01T14:05:40;19.80;;;12.73;;
21183;SDS011;18176;49.502;11.754;2023-03-01T14:09:43;20.17;;;13.10;;
21183;SDS011;18176;49.502;11.754;2023-03-01T14:13:51;18.55;;;12.38;;
21183;SDS011;18176;49.502;11.754;2023-03-01T14:18:17;19.88;;;13.45;;
21183;SDS011;18176;49.502;11.754;2023-03-01T14:22:28;18.25;;;12.38;;
21183;SDS011;18176;49.502;11.754;2023-03-01T14:26:32;20.58;;;13.98;;
21183;SDS011;18176;49.502;11.754;2023-03-01T14:30:42;20.17;;;12.48;;
21183;SDS011;18176;49.502;11.754;2023-03-01T14:34:45;17.90;;;12.63;;
21183;SDS011;18176;49.502;11.754;2023-03-01T14:38:48;18.67;;;12.35;;
21183;SDS011;18176;49.502;11.754;2023-03-01T14:42:49;20.48;;;13.35;;
21183;SDS011;18176;49.502;11.754;2023-03-01T14:46:57;18.50;;;13.07;;
21183;SDS011;18176;49.502;11.754;2023-03-01T14:50:58;18.52;;;13.23;;
21183;SDS011;18176;49.502;11.754;2023-03-01T14:54:59;24.50;;;14.45;;
21183;SDS011;18176;49.502;11.754;2023-03-01T14:59:05;20.17;;;13.98;;
21183;SDS011;18176;49.502;11.754;2023-03-01T15:03:11;23.10;;;14.83;;
21183;SDS011;18176;49.502;11.754;2023-03-01T15:07:25;20.23;;;14.15;;
21183;SDS011;18176;49.502;11.754;2023-03-01T15:11:31;22.97;;;14.83;;
21183;SDS011;18176;49.502;11.754;2023-03-01T15:15:37;22.43;;;15.03;;
21183;SDS011;18176;49.502;11.754;2023-03-01T15:19:48;23.33;;;14.43;;
21183;SDS011;18176;49.502;11.754;2023-03-01T15:23:49;22.53;;;14.43;;
21183;SDS011;18176;49.502;11.754;2023-03-01T15:27:54;22.03;;;14.57;;
21183;SDS011;18176;49.502;11.754;2023-03-01T15:31:58;23.57;;;15.40;;
21183;SDS011;18176;49.502;11.754;2023-03-01T15:36:30;24.63;;;15.40;;
21183;SDS011;18176;49.502;11.754;2023-03-01T15:40:48;23.50;;;15.00;;
21183;SDS011;18176;49.502;11.754;2023-03-01T15:44:49;23.93;;;14.87;;
21183;SDS011;18176;49.502;11.754;2023-03-01T15:49:25;22.83;;;14.37;;
21183;SDS011;18176;49.502;11.754;2023-03-01T15:53:56;22.00;;;14.30;;
21183;SDS011;18176;49.502;11.754;2023-03-01T15:58:02;21.63;;;13.90;;
21183;SDS011;18176;49.502;11.754;2023-03-01T16:02:09;22.50;;;14.27;;
21183;SDS011;18176;49.502;11.754;2023-03-01T16:06:10;23.83;;;14.10;;
21183;SDS011;18176;49.502;11.754;2023-03-01T16:10:14;22.43;;;14.20;;
21183;SDS011;18176;49.502;11.754;2023-03-01T16:14:15;26.40;;;14.87;;
21183;SDS011;18176;49.502;11.754;2023-03-01T16:18:18;22.67;;;14.87;;
21183;SDS011;18176;49.502;11.754;2023-03-01T16:22:19;22.10;;;14.07;;
21183;SDS011;18176;49.502;11.754;2023-03-01T16:26:28;21.77;;;13.97;;
21183;SDS011;18176;49.502;11.754;2023-03-01T16:30:29;27.13;;;15.27;;
21183;SDS011;18176;49.502;11.754;2023-03-01T16:34:32;29.23;;;15.50;;
21183;SDS011;18176;49.502;11.754;2023-03-01T16:38:32;26.30;;;14.93;;
21183;SDS011;18176;49.502;11.754;2023-03-01T16:42:36;22.20;;;14.33;;
21183;SDS011;18176;49.502;11.754;2023-03-01T16:46:37;28.03;;;14.63;;
21183;SDS011;18176;49.502;11.754;2023-03-01T16:50:37;26.17;;;15.10;;
21183;SDS011;18176;49.502;11.754;2023-03-01T16:54:38;27.80;;;16.60;;
21183;SDS011;18176;49.502;11.754;2023-03-01T16:58:42;29.33;;;16.73;;
21183;SDS011;18176;49.502;11.754;2023-03-01T17:02:43;29.03;;;15.97;;
21183;SDS011;18176;49.502;11.754;2023-03-01T17:06:44;33.50;;;17.27;;
21183;SDS011;18176;49.502;11.754;2023-03-01T17:10:45;27.97;;;16.67;;
21183;SDS011;18176;49.502;11.754;2023-03-01T17:14:48;30.50;;;17.20;;
21183;SDS011;18176;49.502;11.754;2023-03-01T17:18:50;25.60;;;15.57;;
21183;SDS011;18176;49.502;11.754;2023-03-01T17:22:50;27.77;;;17.00;;
21183;SDS011;18176;49.502;11.754;2023-03-01T17:26:51;33.07;;;17.93;;
21183;SDS011;18176;49.502;11.754;2023-03-01T17:30:57;37.20;;;18.00;;
21183;SDS011;18176;49.502;11.754;2023-03-01T17:34:59;33.70;;;19.00;;
21183;SDS011;18176;49.502;11.754;2023-03-01T17:39:02;33.60;;;19.20;;
21183;SDS011;18176;49.502;11.754;2023-03-01T17:43:03;41.60;;;22.97;;
21183;SDS011;18176;49.502;11.754;2023-03-01T17:47:08;31.77;;;18.30;;
21183;SDS011;18176;49.502;11.754;2023-03-01T17:51:13;33.00;;;18.50;;
21183;SDS011;18176;49.502;11.754;2023-03-01T17:55:14;32.80;;;18.87;;
21183;SDS011;18176;49.502;11.754;2023-03-01T17:59:15;34.37;;;18.90;;
21183;SDS011;18176;49.502;11.754;2023-03-01T18:03:19;35.90;;;22.00;;
21183;SDS011;18176;49.502;11.754;2023-03-01T18:07:20;35.87;;;21.20;;
21183;SDS011;18176;49.502;11.754;2023-03-01T18:11:21;35.87;;;19.87;;
21183;SDS011;18176;49.502;11.754;2023-03-01T18:15:24;38.70;;;19.93;;
21183;SDS011;18176;49.502;11.754;2023-03-01T18:19:28;45.30;;;21.90;;
21183;SDS011;18176;49.502;11.754;2023-03-01T18:23:29;33.87;;;19.10;;
21183;SDS011;18176;49.502;11.754;2023-03-01T18:27:35;36.73;;;19.57;;
21183;SDS011;18176;49.502;11.754;2023-03-01T18:31:38;38.43;;;20.27;;
21183;SDS011;18176;49.502;11.754;2023-03-01T18:35:41;30.70;;;18.60;;
21183;SDS011;18176;49.502;11.754;2023-03-01T18:39:43;39.07;;;20.87;;
21183;SDS011;18176;49.502;11.754;2023-03-01T18:43:44;34.63;;;19.93;;
21183;SDS011;18176;49.502;11.754;2023-03-01T18:47:46;37.43;;;20.63;;
21183;SDS011;18176;49.502;11.754;2023-03-01T18:51:56;34.03;;;18.77;;
21183;SDS011;18176;49.502;11.754;2023-03-01T18:55:58;34.97;;;19.43;;
21183;SDS011;18176;49.502;11.754;2023-03-01T19:00:03;37.30;;;20.67;;
21183;SDS011;18176;49.502;11.754;2023-03-01T19:04:05;38.40;;;20.03;;
21183;SDS011;18176;49.502;11.754;2023-03-01T19:08:09;36.87;;;20.43;;
21183;SDS011;18176;49.502;11.754;2023-03-01T19:12:11;34.83;;;19.53;;
21183;SDS011;18176;49.502;11.754;2023-03-01T19:16:16;35.33;;;19.40;;
21183;SDS011;18176;49.502;11.754;2023-03-01T19:20:19;35.50;;;18.47;;
21183;SDS011;18176;49.502;11.754;2023-03-01T19:24:23;36.03;;;19.47;;
21183;SDS011;18176;49.502;11.754;2023-03-01T19:28:28;36.37;;;19.70;;
21183;SDS011;18176;49.502;11.754;2023-03-01T19:32:34;44.67;;;24.03;;
21183;SDS011;18176;49.502;11.754;2023-03-01T19:36:37;45.27;;;23.83;;
21183;SDS011;18176;49.502;11.754;2023-03-01T19:40:43;45.00;;;23.93;;
21183;SDS011;18176;49.502;11.754;2023-03-01T19:44:48;43.33;;;23.60;;
21183;SDS011;18176;49.502;11.754;2023-03-01T19:48:52;41.30;;;22.20;;
21183;SDS011;18176;49.502;11.754;2023-03-01T19:52:56;39.23;;;21.80;;
21183;SDS011;18176;49.502;11.754;2023-03-01T19:57:03;40.50;;;21.20;;
21183;SDS011;18176;49.502;11.754;2023-03-01T20:01:04;36.10;;;20.13;;
21183;SDS011;18176;49.502;11.754;2023-03-01T20:05:15;38.77;;;20.93;;
21183;SDS011;18176;49.502;11.754;2023-03-01T20:09:21;39.67;;;19.93;;
21183;SDS011;18176;49.502;11.754;2023-03-01T20:13:26;40.30;;;20.33;;
21183;SDS011;18176;49.502;11.754;2023-03-01T20:17:30;41.30;;;20.10;;
21183;SDS011;18176;49.502;11.754;2023-03-01T20:21:33;41.00;;;20.60;;
21183;SDS011;18176;49.502;11.754;2023-03-01T20:25:37;35.17;;;19.80;;
21183;SDS011;18176;49.502;11.754;2023-03-01T20:29:43;40.57;;;19.17;;
21183;SDS011;18176;49.502;11.754;2023-03-01T20:33:48;35.30;;;19.47;;
21183;SDS011;18176;49.502;11.754;2023-03-01T20:37:49;36.03;;;19.63;;
21183;SDS011;18176;49.502;11.754;2023-03-01T20:41:52;34.47;;;19.03;;
21183;SDS011;18176;49.502;11.754;2023-03-01T20:45:56;38.33;;;19.70;;
21183;SDS011;18176;49.502;11.754;2023-03-01T20:50:02;36.13;;;18.30;;
21183;SDS011;18176;49.502;11.754;2023-03-01T20:54:04;34.93;;;18.83;;
21183;SDS011;18176;49.502;11.754;2023-03-01T20:58:09;41.43;;;20.37;;
21183;SDS011;18176;49.502;11.754;2023-03-01T21:02:12;35.03;;;19.27;;
21183;SDS011;18176;49.502;11.754;2023-03-01T21:06:13;37.37;;;19.60;;
21183;SDS011;18176;49.502;11.754;2023-03-01T21:10:16;36.77;;;19.43;;
21183;SDS011;18176;49.502;11.754;2023-03-01T21:14:19;36.63;;;19.13;;
21183;SDS011;18176;49.502;11.754;2023-03-01T21:18:24;43.37;;;23.00;;
21183;SDS011;18176;49.502;11.754;2023-03-01T21:22:26;36.90;;;19.90;;
21183;SDS011;18176;49.502;11.754;2023-03-01T21:26:28;36.37;;;20.43;;
21183;SDS011;18176;49.502;11.754;2023-03-01T21:30:33;38.20;;;19.77;;
21183;SDS011;18176;49.502;11.754;2023-03-01T21:34:38;39.80;;;20.67;;
21183;SDS011;18176;49.502;11.754;2023-03-01T21:38:40;39.03;;;21.47;;
21183;SDS011;18176;49.502;11.754;2023-03-01T21:42:44;44.57;;;23.40;;
21183;SDS011;18176;49.502;11.754;2023-03-01T21:46:45;44.63;;;22.30;;
21183;SDS011;18176;49.502;11.754;2023-03-01T21:50:56;37.33;;;19.23;;
21183;SDS011;18176;49.502;11.754;2023-03-01T21:54:58;37.53;;;19.07;;
21183;SDS011;18176;49.502;11.754;2023-03-01T21:59:00;38.77;;;20.20;;
21183;SDS011;18176;49.502;11.754;2023-03-01T22:03:05;36.43;;;19.37;;
21183;SDS011;18176;49.502;11.754;2023-03-01T22:07:11;35.57;;;19.00;;
21183;SDS011;18176;49.502;11.754;2023-03-01T22:11:12;38.13;;;19.33;;
21183;SDS011;18176;49.502;11.754;2023-03-01T22:15:16;37.77;;;19.33;;
21183;SDS011;18176;49.502;11.754;2023-03-01T22:19:17;36.97;;;18.90;;
21183;SDS011;18176;49.502;11.754;2023-03-01T22:23:27;37.47;;;20.40;;
21183;SDS011;18176;49.502;11.754;2023-03-01T22:27:28;38.07;;;20.00;;
21183;SDS011;18176;49.502;11.754;2023-03-01T22:31:29;35.87;;;19.60;;
21183;SDS011;18176;49.502;11.754;2023-03-01T22:35:30;37.10;;;19.00;;
21183;SDS011;18176;49.502;11.754;2023-03-01T22:39:33;38.80;;;20.00;;
21183;SDS011;18176;49.502;11.754;2023-03-01T22:43:34;34.93;;;19.07;;
21183;SDS011;18176;49.502;11.754;2023-03-01T22:47:35;38.40;;;19.40;;
21183;SDS011;18176;49.502;11.754;2023-03-01T22:51:36;40.33;;;20.47;;
21183;SDS011;18176;49.502;11.754;2023-03-01T22:55:42;39.87;;;20.10;;
21183;SDS011;18176;49.502;11.754;2023-03-01T22:59:43;38.77;;;19.23;;
21183;SDS011;18176;49.502;11.754;2023-03-01T23:03:45;36.40;;;18.87;;
21183;SDS011;18176;49.502;11.754;2023-03-01T23:07:48;35.40;;;17.90;;
21183;SDS011;18176;49.502;11.754;2023-03-01T23:11:52;33.37;;;18.77;;
21183;SDS011;18176;49.502;11.754;2023-03-01T23:15:54;36.37;;;18.67;;
21183;SDS011;18176;49.502;11.754;2023-03-01T23:19:57;34.90;;;18.13;;
21183;SDS011;18176;49.502;11.754;2023-03-01T23:24:02;34.83;;;17.57;;
21183;SDS011;18176;49.502;11.754;2023-03-01T23:28:07;35.03;;;18.30;;
21183;SDS011;18176;49.502;11.754;2023-03-01T23:32:07;37.07;;;18.77;;
21183;SDS011;18176;49.502;11.754;2023-03-01T23:36:14;40.77;;;18.57;;
21183;SDS011;18176;49.502;11.754;2023-03-01T23:40:22;36.47;;;18.03;;